Time;durP1;ratioP1;P1;durP2;ratioP2;P2;SDS_P1;SDS_P2;PMS_P1;PMS_P2;Temp;Humidity;BMP_temperature;BMP_pressure;BME280_temperature;BME280_humidity;BME280_pressure;Samples;Min_cycle;Max_cycle;Signal;HPM_P1;HPM_P2
2022/05/09 00:01:13;;;;;;;;;;;25.00;40.00;;;;;;5019479;28;19925;-72
2022/05/09 00:03:40;;;;;;;;;;;25.00;40.00;;;;;;5019205;28;19932;-72
2022/05/09 00:06:08;;;;;;;;;;;25.00;40.00;;;;;;5019063;28;19962;-72
2022/05/09 00:08:34;;;;;;;;;;;25.00;40.10;;;;;;5019274;28;19929;-72
2022/05/09 00:11:02;;;;;;;;;;;25.00;40.10;;;;;;5019077;28;19973;-72
2022/05/09 00:13:29;;;;;;;;;;;25.00;40.10;;;;;;5019152;28;20321;-72
2022/05/09 00:15:56;;;;;;;;;;;24.90;40.10;;;;;;5001568;28;20436;-72
2022/05/09 00:18:23;;;;;;;;;;;24.90;40.10;;;;;;5019328;28;20266;-72
2022/05/09 00:20:50;;;;;;;;;;;24.90;40.10;;;;;;5001817;28;20333;-72
2022/05/09 00:23:17;;;;;;;;;;;24.90;40.10;;;;;;5019705;28;19925;-72
2022/05/09 00:25:44;;;;;;;;;;;24.90;40.10;;;;;;5018825;28;19925;-72
2022/05/09 00:28:11;;;;;;;;;;;24.90;40.10;;;;;;5018859;28;19929;-71
2022/05/09 00:30:38;;;;;;;;;;;24.90;40.20;;;;;;5018610;28;20278;-72
2022/05/09 00:33:05;;;;;;;;;;;24.90;40.20;;;;;;5018550;28;19976;-72
2022/05/09 00:35:32;;;;;;;;;;;24.90;40.20;;;;;;5018679;28;19929;-72
2022/05/09 00:37:59;;;;;;;;;;;24.90;40.20;;;;;;5018453;28;19925;-72
2022/05/09 00:40:26;;;;;;;;;;;24.90;40.20;;;;;;5018574;28;20345;-72
2022/05/09 00:42:53;;;;;;;;;;;24.90;40.20;;;;;;5018411;28;19972;-72
2022/05/09 00:45:22;;;;;;;;;;;24.90;40.20;;;;;;5018581;28;19925;-71
2022/05/09 00:47:49;;;;;;;;;;;24.90;40.30;;;;;;5018511;28;19973;-72
2022/05/09 00:50:23;;;;;;;;;;;24.90;40.30;;;;;;5001018;28;19929;-72
2022/05/09 00:52:59;;;;;;;;;;;24.90;40.30;;;;;;5017798;28;20366;-72
2022/05/09 00:55:36;;;;;;;;;;;24.90;40.30;;;;;;5018414;28;19926;-72
2022/05/09 00:58:14;;;;;;;;;;;24.90;40.30;;;;;;5017974;28;19932;-72
2022/05/09 01:00:44;;;;;;;;;;;24.90;40.30;;;;;;5018530;28;19925;-71
2022/05/09 01:03:13;;;;;;;;;;;24.90;40.30;;;;;;5018087;28;19925;-72
2022/05/09 01:05:50;;;;;;;;;;;24.90;40.40;;;;;;5000790;28;20393;-72
2022/05/09 01:08:18;;;;;;;;;;;24.90;40.40;;;;;;5018249;28;19932;-72
2022/05/09 01:10:46;;;;;;;;;;;24.90;40.40;;;;;;5017996;28;19969;-72
2022/05/09 01:13:13;;;;;;;;;;;24.90;40.40;;;;;;5018239;28;19925;-72
2022/05/09 01:15:42;;;;;;;;;;;24.90;40.40;;;;;;5018283;28;20356;-72
2022/05/09 01:18:10;;;;;;;;;;;24.90;40.40;;;;;;5018259;28;19926;-71
2022/05/09 01:20:37;;;;;;;;;;;24.90;40.40;;;;;;5018350;28;19937;-72
2022/05/09 01:23:07;;;;;;;;;;;24.90;40.40;;;;;;5018166;28;19925;-72
2022/05/09 01:25:34;;;;;;;;;;;24.90;40.40;;;;;;5017819;28;19925;-72
2022/05/09 01:28:02;;;;;;;;;;;24.90;40.40;;;;;;5017748;28;19926;-72
2022/05/09 01:30:35;;;;;;;;;;;24.90;40.40;;;;;;5017727;28;19930;-72
2022/05/09 01:33:11;;;;;;;;;;;24.90;40.40;;;;;;5017688;28;19925;-72
2022/05/09 01:35:49;;;;;;;;;;;24.80;40.40;;;;;;5017561;28;19943;-72
2022/05/09 01:38:32;;;;;;;;;;;24.80;40.40;;;;;;5017726;28;19933;-71
2022/05/09 01:40:59;;;;;;;;;;;24.80;40.40;;;;;;5017582;28;19929;-72
2022/05/09 01:43:37;;;;;;;;;;;24.80;40.40;;;;;;5017835;28;19950;-72
2022/05/09 01:46:05;;;;;;;;;;;24.80;40.50;;;;;;5000225;28;19926;-72
2022/05/09 01:51:20;;;;;;;;;;;24.80;40.50;;;;;;5003023;28;19929;-72
2022/05/09 01:53:53;;;;;;;;;;;24.80;40.50;;;;;;5017833;28;19934;-72
2022/05/09 01:56:25;;;;;;;;;;;24.80;40.50;;;;;;5017541;28;19999;-71
2022/05/09 01:58:52;;;;;;;;;;;24.80;40.50;;;;;;5017805;28;19932;-72
2022/05/09 02:01:20;;;;;;;;;;;24.80;40.50;;;;;;5017449;28;19948;-72
2022/05/09 02:03:48;;;;;;;;;;;24.80;40.50;;;;;;5018221;28;20408;-72
2022/05/09 02:06:15;;;;;;;;;;;24.80;40.50;;;;;;5021488;28;20396;-72
2022/05/09 02:08:42;;;;;;;;;;;24.80;40.50;;;;;;5021648;28;19972;-72
2022/05/09 02:11:09;;;;;;;;;;;24.80;40.60;;;;;;5021255;28;19926;-72
2022/05/09 02:13:36;;;;;;;;;;;24.80;40.50;;;;;;5021248;28;19926;-72
2022/05/09 02:16:04;;;;;;;;;;;24.80;40.50;;;;;;5021194;28;19925;-72
2022/05/09 02:18:35;;;;;;;;;;;24.80;40.60;;;;;;5021168;28;19926;-72
2022/05/09 02:21:02;;;;;;;;;;;24.70;40.50;;;;;;5021442;28;19988;-72
2022/05/09 02:23:29;;;;;;;;;;;24.70;40.50;;;;;;5021234;28;20297;-72
2022/05/09 02:25:56;;;;;;;;;;;24.70;40.60;;;;;;5021340;28;20337;-72
2022/05/09 02:28:23;;;;;;;;;;;24.80;40.60;;;;;;5021278;28;19949;-72
2022/05/09 02:30:50;;;;;;;;;;;24.80;40.70;;;;;;5020809;28;19973;-72
2022/05/09 02:33:17;;;;;;;;;;;24.70;40.60;;;;;;5021032;28;19929;-72
2022/05/09 02:35:44;;;;;;;;;;;24.70;40.60;;;;;;5020731;28;20378;-72
2022/05/09 02:38:11;;;;;;;;;;;24.80;40.70;;;;;;5020952;28;20447;-72
2022/05/09 02:40:40;;;;;;;;;;;24.80;40.70;;;;;;5020684;28;20378;-73
2022/05/09 02:43:07;;;;;;;;;;;24.80;40.70;;;;;;5020997;28;19930;-72
2022/05/09 02:45:34;;;;;;;;;;;24.80;40.70;;;;;;5021023;28;19925;-72
2022/05/09 02:48:02;;;;;;;;;;;24.80;40.70;;;;;;5020810;28;19932;-72
2022/05/09 02:50:29;;;;;;;;;;;24.80;40.70;;;;;;5020957;28;19925;-72
2022/05/09 02:52:56;;;;;;;;;;;24.80;40.70;;;;;;5020873;28;20278;-72
2022/05/09 02:55:23;;;;;;;;;;;24.80;40.70;;;;;;5020898;28;19948;-72
2022/05/09 02:57:50;;;;;;;;;;;24.80;40.70;;;;;;5020583;28;19933;-72
2022/05/09 03:00:22;;;;;;;;;;;24.80;40.70;;;;;;5020781;28;19937;-71
2022/05/09 03:05:38;;;;;;;;;;;24.70;40.60;;;;;;5020654;28;19930;-71
2022/05/09 03:08:06;;;;;;;;;;;24.70;40.70;;;;;;5020365;28;20424;-72
2022/05/09 03:10:33;;;;;;;;;;;24.70;40.70;;;;;;5020424;28;19925;-71
2022/05/09 03:13:01;;;;;;;;;;;24.70;40.70;;;;;;5020360;28;20270;-72
2022/05/09 03:15:29;;;;;;;;;;;24.70;40.70;;;;;;5019943;28;19972;-72
2022/05/09 03:17:56;;;;;;;;;;;24.70;40.70;;;;;;5020107;28;19972;-71
2022/05/09 03:20:24;;;;;;;;;;;24.70;40.70;;;;;;5020259;28;19925;-72
2022/05/09 03:22:51;;;;;;;;;;;24.70;40.70;;;;;;5019958;28;20369;-72
2022/05/09 03:25:18;;;;;;;;;;;24.70;40.70;;;;;;5019807;28;19972;-72
2022/05/09 03:27:45;;;;;;;;;;;24.70;40.70;;;;;;5020235;28;19925;-72
2022/05/09 03:30:13;;;;;;;;;;;24.70;40.80;;;;;;5019975;28;19925;-71
2022/05/09 03:32:41;;;;;;;;;;;24.70;40.70;;;;;;5019815;28;19925;-72
2022/05/09 03:35:09;;;;;;;;;;;24.70;40.80;;;;;;5019861;28;19925;-71
2022/05/09 03:37:37;;;;;;;;;;;24.70;40.80;;;;;;5019706;28;19942;-72
2022/05/09 03:40:05;;;;;;;;;;;24.70;40.80;;;;;;5019816;28;19926;-72
2022/05/09 03:42:32;;;;;;;;;;;24.70;40.80;;;;;;5002493;28;19926;-72
2022/05/09 03:44:59;;;;;;;;;;;24.70;40.80;;;;;;5002393;28;20424;-72
2022/05/09 03:47:26;;;;;;;;;;;24.70;40.80;;;;;;5019739;28;20305;-72
2022/05/09 03:49:55;;;;;;;;;;;24.70;40.80;;;;;;5019681;28;19926;-72
2022/05/09 03:52:23;;;;;;;;;;;24.70;40.80;;;;;;5019551;28;19957;-71
2022/05/09 03:54:50;;;;;;;;;;;24.70;40.80;;;;;;5019556;28;19925;-72
2022/05/09 03:57:17;;;;;;;;;;;24.70;40.80;;;;;;5019481;28;19984;-72
2022/05/09 03:59:44;;;;;;;;;;;24.70;40.80;;;;;;5019549;28;20016;-72
2022/05/09 04:02:11;;;;;;;;;;;24.70;40.80;;;;;;5019621;28;19980;-72
2022/05/09 04:04:38;;;;;;;;;;;24.70;40.80;;;;;;5019228;28;19976;-72
2022/05/09 04:07:05;;;;;;;;;;;24.70;40.80;;;;;;5019625;28;19933;-71
2022/05/09 04:09:33;;;;;;;;;;;24.70;40.80;;;;;;5019390;28;20301;-72
2022/05/09 04:12:00;;;;;;;;;;;24.70;40.80;;;;;;5001695;28;19932;-72
2022/05/09 04:17:20;;;;;;;;;;;24.70;40.70;;;;;;5018968;28;19974;-72
2022/05/09 04:19:47;;;;;;;;;;;24.80;40.80;;;;;;5001550;28;19965;-72
2022/05/09 04:22:14;;;;;;;;;;;24.80;40.80;;;;;;5019190;28;20025;-72
2022/05/09 04:24:43;;;;;;;;;;;24.80;40.80;;;;;;5019155;28;19949;-72
2022/05/09 04:27:10;;;;;;;;;;;24.80;40.70;;;;;;5017973;28;20012;-72
2022/05/09 04:29:38;;;;;;;;;;;24.80;40.70;;;;;;5019176;28;19930;-72
2022/05/09 04:32:05;;;;;;;;;;;24.80;40.70;;;;;;5001808;28;20336;-72
2022/05/09 04:34:32;;;;;;;;;;;24.80;40.60;;;;;;5019202;28;19925;-71
2022/05/09 04:36:59;;;;;;;;;;;24.90;40.70;;;;;;5018640;28;19973;-72
2022/05/09 04:39:26;;;;;;;;;;;24.90;40.60;;;;;;5018614;28;19929;-72
2022/05/09 04:41:53;;;;;;;;;;;24.90;40.60;;;;;;5018766;28;19929;-72
2022/05/09 04:44:22;;;;;;;;;;;24.90;40.60;;;;;;5018438;28;19933;-72
2022/05/09 04:46:49;;;;;;;;;;;24.90;40.50;;;;;;5018743;28;19980;-72
2022/05/09 04:49:16;;;;;;;;;;;24.90;40.50;;;;;;5018480;28;19932;-72
2022/05/09 04:51:43;;;;;;;;;;;24.90;40.50;;;;;;5018339;28;19957;-72
2022/05/09 04:54:10;;;;;;;;;;;24.90;40.40;;;;;;5018199;28;20373;-72
2022/05/09 04:56:37;;;;;;;;;;;24.90;40.40;;;;;;5018611;28;19933;-71
2022/05/09 04:59:04;;;;;;;;;;;24.90;40.30;;;;;;5018424;28;19980;-72
2022/05/09 05:01:31;;;;;;;;;;;25.00;40.30;;;;;;5018431;28;19948;-71
2022/05/09 05:03:59;;;;;;;;;;;25.00;40.30;;;;;;5018239;28;20455;-72
2022/05/09 05:06:26;;;;;;;;;;;25.00;40.30;;;;;;5018385;28;19933;-72
2022/05/09 05:08:53;;;;;;;;;;;25.00;40.30;;;;;;5018480;28;19929;-72
2022/05/09 05:11:20;;;;;;;;;;;25.10;40.50;;;;;;5000548;28;19953;-72
2022/05/09 05:13:47;;;;;;;;;;;25.10;40.50;;;;;;5018317;28;19953;-72
2022/05/09 05:16:14;;;;;;;;;;;25.10;40.60;;;;;;5002024;28;20279;-69
2022/05/09 05:18:43;;;;;;;;;;;25.10;40.50;;;;;;5029258;28;19933;-72
2022/05/09 05:21:11;;;;;;;;;;;25.10;40.60;;;;;;5028573;28;19983;-72
2022/05/09 05:23:39;;;;;;;;;;;25.10;40.70;;;;;;5029819;28;19948;-68
2022/05/09 05:29:57;;;;;;;;;;;25.20;41.40;;;;;;5030074;28;20001;-73
2022/05/09 05:32:25;;;;;;;;;;;25.20;41.10;;;;;;5042001;28;19925;-70
2022/05/09 05:34:52;;;;;;;;;;;25.20;41.20;;;;;;5040613;28;19921;-72
2022/05/09 05:37:20;;;;;;;;;;;25.20;41.30;;;;;;5035662;28;19929;-66
2022/05/09 05:39:49;;;;;;;;;;;25.30;41.20;;;;;;5037286;28;19935;-76
2022/05/09 05:45:37;;;;;;;;;;;25.40;41.80;;;;;;5037385;28;19924;-69
2022/05/09 05:48:08;;;;;;;;;;;25.40;42.00;;;;;;5029951;28;19964;-72
2022/05/09 05:50:37;;;;;;;;;;;25.40;42.00;;;;;;5015171;28;19932;-74
2022/05/09 05:53:04;;;;;;;;;;;25.40;42.10;;;;;;5016542;28;20373;-75
2022/05/09 05:58:53;;;;;;;;;;;25.40;43.20;;;;;;5589557;22;19932;-77
2022/05/09 06:01:22;;;;;;;;;;;25.50;43.90;;;;;;5071811;28;19932;-73
2022/05/09 06:07:26;;;;;;;;;;;25.50;43.80;;;;;;5083274;28;19937;-74
2022/05/09 06:13:15;;;;;;;;;;;25.50;43.20;;;;;;5099010;28;20036;-61
2022/05/09 06:15:42;;;;;;;;;;;25.50;42.80;;;;;;5096851;28;20331;-71
2022/05/09 06:18:42;;;;;;;;;;;25.50;43.30;;;;;;5091460;28;20376;-73
2022/05/09 06:21:44;;;;;;;;;;;25.50;43.00;;;;;;5060802;28;19938;-71
2022/05/09 06:24:13;;;;;;;;;;;25.60;42.80;;;;;;5079727;28;20028;-72
2022/05/09 06:26:40;;;;;;;;;;;25.60;43.40;;;;;;5075668;28;19929;-73
2022/05/09 06:29:08;;;;;;;;;;;25.60;43.10;;;;;;5088335;28;19924;-68
2022/05/09 06:31:36;;;;;;;;;;;25.60;43.20;;;;;;5082561;28;19929;-72
2022/05/09 06:34:04;;;;;;;;;;;25.40;43.40;;;;;;5077572;28;19924;-73
2022/05/09 06:40:25;;;;;;;;;;;25.30;43.60;;;;;;5077575;28;19920;-71
2022/05/09 06:42:54;;;;;;;;;;;25.10;44.20;;;;;;5075837;28;19932;-69
2022/05/09 06:45:21;;;;;;;;;;;25.10;43.70;;;;;;5075199;28;19924;-67
2022/05/09 06:47:50;;;;;;;;;;;25.10;44.10;;;;;;5074123;28;19954;-73
2022/05/09 06:50:24;;;;;;;;;;;25.10;43.60;;;;;;5076645;28;19924;-72
2022/05/09 06:53:26;;;;;;;;;;;25.10;43.50;;;;;;5077711;28;19931;-73
2022/05/09 06:56:26;;;;;;;;;;;25.20;43.00;;;;;;5090635;28;19932;-69
2022/05/09 06:59:37;;;;;;;;;;;25.30;43.00;;;;;;5080291;28;19920;-68
2022/05/09 07:02:04;;;;;;;;;;;25.40;42.80;;;;;;5086181;28;20338;-70
2022/05/09 07:04:31;;;;;;;;;;;25.40;42.60;;;;;;5084331;28;20325;-68
2022/05/09 07:07:04;;;;;;;;;;;25.50;42.60;;;;;;5062517;28;19928;-72
2022/05/09 07:09:31;;;;;;;;;;;25.60;42.50;;;;;;5097096;28;20395;-72
2022/05/09 07:11:59;;;;;;;;;;;25.60;42.50;;;;;;5098723;28;20026;-70
2022/05/09 07:14:26;;;;;;;;;;;25.70;42.30;;;;;;5091839;28;19920;-72
2022/05/09 07:17:24;;;;;;;;;;;25.70;42.20;;;;;;5096451;28;19943;-73
2022/05/09 07:19:52;;;;;;;;;;;25.80;41.90;;;;;;5076816;28;19920;-77
2022/05/09 07:29:14;;;;;;;;;;;25.90;41.60;;;;;;5083453;28;19924;-72
2022/05/09 07:39:03;;;;;;;;;;;25.90;42.00;;;;;;5087935;28;19998;-66
2022/05/09 07:41:31;;;;;;;;;;;25.90;42.00;;;;;;5098090;28;19924;-71
2022/05/09 07:43:58;;;;;;;;;;;25.90;42.00;;;;;;5098928;28;19928;-66
2022/05/09 07:46:25;;;;;;;;;;;25.80;42.10;;;;;;5098184;28;19958;-67
2022/05/09 07:49:12;;;;;;;;;;;25.80;42.70;;;;;;5092309;28;20372;-74
2022/05/09 07:51:40;;;;;;;;;;;25.80;42.40;;;;;;5082019;28;19920;-70
2022/05/09 07:54:07;;;;;;;;;;;25.80;42.50;;;;;;5086324;28;19928;-73
2022/05/09 08:00:02;;;;;;;;;;;25.90;42.90;;;;;;5074968;28;19968;-74
2022/05/09 08:09:11;;;;;;;;;;;26.00;43.00;;;;;;5076981;28;19925;-71
2022/05/09 08:12:21;;;;;;;;;;;26.00;41.90;;;;;;5075603;28;19928;-68
2022/05/09 08:15:26;;;;;;;;;;;26.00;41.90;;;;;;5094994;28;19962;-72
2022/05/09 08:17:53;;;;;;;;;;;26.00;41.90;;;;;;5093603;28;19926;-74
2022/05/09 08:30:12;;;;;;;;;;;26.10;41.00;;;;;;5040555;28;19925;-63
2022/05/09 08:32:42;;;;;;;;;;;26.20;40.50;;;;;;5037935;28;19960;-66
2022/05/09 08:35:10;;;;;;;;;;;26.20;40.60;;;;;;5020329;28;19925;-64
2022/05/09 08:37:37;;;;;;;;;;;26.20;40.70;;;;;;5037247;28;20420;-68
2022/05/09 08:40:05;;;;;;;;;;;26.30;40.90;;;;;;5037319;28;20305;-71
2022/05/09 08:42:45;;;;;;;;;;;26.30;40.70;;;;;;5036426;28;19925;-67
2022/05/09 08:45:17;;;;;;;;;;;26.40;40.40;;;;;;5019936;28;19925;-65
2022/05/09 08:48:17;;;;;;;;;;;26.40;40.40;;;;;;5036520;28;19929;-68
2022/05/09 08:53:56;;;;;;;;;;;26.40;40.60;;;;;;5014143;28;19929;-72
2022/05/09 08:56:26;;;;;;;;;;;26.40;40.80;;;;;;5028238;28;20139;-65
2022/05/09 09:02:34;;;;;;;;;;;26.50;40.90;;;;;;5123851;22;19955;-65
2022/05/09 09:08:44;;;;;;;;;;;26.70;41.00;;;;;;5717616;22;19978;-64
2022/05/09 09:11:16;;;;;;;;;;;26.70;41.00;;;;;;5048450;28;20399;-70
2022/05/09 09:24:19;;;;;;;;;;;26.70;39.90;;;;;;5030517;28;19920;-65
2022/05/09 09:27:06;;;;;;;;;;;26.80;40.10;;;;;;5033564;28;19928;-65
2022/05/09 09:29:43;;;;;;;;;;;26.80;40.10;;;;;;5035636;28;19925;-68
2022/05/09 09:32:11;;;;;;;;;;;26.80;39.70;;;;;;5035683;28;20324;-67
2022/05/09 09:38:46;;;;;;;;;;;26.80;39.40;;;;;;5043295;28;20343;-66
2022/05/09 09:41:31;;;;;;;;;;;26.80;39.80;;;;;;5034856;28;19976;-65
2022/05/09 09:44:27;;;;;;;;;;;26.70;38.70;;;;;;5033586;28;19929;-70
2022/05/09 09:47:28;;;;;;;;;;;26.70;38.40;;;;;;5016672;28;19954;-66
2022/05/09 09:50:29;;;;;;;;;;;26.70;38.70;;;;;;5013197;28;19921;-67
2022/05/09 10:04:06;;;;;;;;;;;26.70;39.10;;;;;;4973479;28;19929;-65
2022/05/09 10:10:11;;;;;;;;;;;26.70;40.00;;;;;;4986776;28;20279;-68
2022/05/09 10:12:40;;;;;;;;;;;26.70;39.30;;;;;;4995698;28;19929;-72
2022/05/09 10:15:21;;;;;;;;;;;26.70;38.80;;;;;;4995662;28;19926;-72
2022/05/09 10:18:39;;;;;;;;;;;26.70;39.00;;;;;;4992225;28;19922;-68
2022/05/09 10:31:53;;;;;;;;;;;26.60;38.30;;;;;;4998491;28;19930;-66
2022/05/09 10:34:26;;;;;;;;;;;26.60;38.20;;;;;;4979845;28;19960;-70
2022/05/09 10:40:59;;;;;;;;;;;26.50;38.20;;;;;;4996771;28;19965;-69
2022/05/09 10:47:26;;;;;;;;;;;26.50;36.60;;;;;;4959951;28;19921;-68
2022/05/09 10:50:01;;;;;;;;;;;26.40;35.70;;;;;;4989508;28;20144;-69
2022/05/09 10:55:53;;;;;;;;;;;26.40;36.80;;;;;;4989916;28;19925;-61
2022/05/09 11:02:22;;;;;;;;;;;26.40;37.00;;;;;;4973721;28;19917;-64
2022/05/09 11:04:49;;;;;;;;;;;26.40;36.90;;;;;;4979379;28;19930;-63
2022/05/09 11:07:41;;;;;;;;;;;26.40;36.90;;;;;;4982325;28;19929;-63
2022/05/09 11:10:48;;;;;;;;;;;26.40;36.70;;;;;;4994032;28;19926;-64
2022/05/09 11:13:24;;;;;;;;;;;26.40;36.30;;;;;;4998906;28;19926;-64
2022/05/09 11:16:13;;;;;;;;;;;26.40;36.30;;;;;;4998763;28;20271;-65
2022/05/09 11:19:04;;;;;;;;;;;26.40;36.60;;;;;;4998869;28;19948;-63
2022/05/09 11:21:51;;;;;;;;;;;26.40;36.90;;;;;;5007900;28;19922;-66
2022/05/09 11:30:48;;;;;;;;;;;26.50;37.20;;;;;;5652445;22;19921;-69
2022/05/09 11:33:34;;;;;;;;;;;26.50;36.70;;;;;;5034148;28;19937;-72
2022/05/09 11:43:27;;;;;;;;;;;26.70;36.30;;;;;;5021775;28;19971;-64
2022/05/09 11:46:39;;;;;;;;;;;26.70;36.10;;;;;;5023522;28;19921;-69
2022/05/09 11:49:18;;;;;;;;;;;26.70;36.30;;;;;;5036195;28;19976;-66
2022/05/09 11:51:47;;;;;;;;;;;26.70;36.10;;;;;;5017739;28;19937;-69
2022/05/09 12:01:45;;;;;;;;;;;26.70;36.10;;;;;;5023485;28;19920;-72
2022/05/09 12:04:30;;;;;;;;;;;26.60;36.20;;;;;;5029376;28;19928;-70
2022/05/09 12:21:16;;;;;;;;;;;26.90;36.20;;;;;;5033808;28;19936;-69
2022/05/09 12:24:04;;;;;;;;;;;26.90;36.30;;;;;;5019995;28;19925;-69
2022/05/09 12:29:55;;;;;;;;;;;27.00;36.40;;;;;;5030198;28;19968;-70
2022/05/09 12:36:02;;;;;;;;;;;27.00;36.50;;;;;;5020342;28;19967;-65
2022/05/09 12:38:33;;;;;;;;;;;27.00;36.50;;;;;;5019731;28;19980;-70
2022/05/09 12:47:46;;;;;;;;;;;27.10;36.60;;;;;;5016534;28;19941;-65
2022/05/09 12:50:45;;;;;;;;;;;27.10;36.50;;;;;;5021665;28;19925;-69
2022/05/09 12:53:57;;;;;;;;;;;27.00;36.60;;;;;;5016864;28;19928;-72
2022/05/09 12:56:28;;;;;;;;;;;27.10;36.60;;;;;;5015444;28;19929;-71
2022/05/09 12:59:00;;;;;;;;;;;27.10;36.60;;;;;;5017637;28;19929;-64
2022/05/09 13:15:09;;;;;;;;;;;27.10;36.40;;;;;;5076910;28;19924;-68
2022/05/09 13:20:18;;;;;;;;;;;27.20;36.30;;;;;;5871965;22;19924;-65
2022/05/09 13:22:50;;;;;;;;;;;27.20;36.30;;;;;;5056348;28;19925;-62
2022/05/09 13:25:20;;;;;;;;;;;27.20;36.40;;;;;;5056118;28;19924;-64
2022/05/09 13:34:58;;;;;;;;;;;27.20;36.20;;;;;;5636970;23;19999;-69
2022/05/09 13:37:27;;;;;;;;;;;27.20;36.30;;;;;;5035904;28;19927;-64
2022/05/09 13:43:38;;;;;;;;;;;27.20;36.00;;;;;;5068471;28;20577;-64
2022/05/09 13:52:21;;;;;;;;;;;27.20;35.90;;;;;;5867197;22;19924;-68
2022/05/09 13:54:49;;;;;;;;;;;27.20;35.70;;;;;;5079680;28;20330;-65
2022/05/09 13:57:19;;;;;;;;;;;27.20;35.60;;;;;;5093776;28;19924;-67
2022/05/09 13:59:48;;;;;;;;;;;27.20;35.70;;;;;;5076930;28;19932;-69
2022/05/09 14:02:16;;;;;;;;;;;27.20;35.70;;;;;;5096544;28;19931;-69
2022/05/09 14:05:15;;;;;;;;;;;27.20;35.60;;;;;;5096370;28;19924;-73
2022/05/09 14:07:43;;;;;;;;;;;27.20;35.60;;;;;;5076754;28;19929;-77
2022/05/09 14:10:14;;;;;;;;;;;27.20;35.70;;;;;;5076694;28;19986;-71
2022/05/09 14:16:07;;;;;;;;;;;27.20;35.80;;;;;;5090167;28;19923;-66
2022/05/09 14:32:00;;;;;;;;;;;26.90;37.10;;;;;;5087145;28;19953;-74
2022/05/09 14:37:59;;;;;;;;;;;26.80;36.90;;;;;;5082301;28;19915;-72
2022/05/09 14:40:27;;;;;;;;;;;26.80;36.90;;;;;;5090816;28;20314;-73
2022/05/09 14:42:56;;;;;;;;;;;26.80;37.00;;;;;;5071957;28;20383;-73
2022/05/09 14:45:24;;;;;;;;;;;26.80;37.10;;;;;;5090286;28;19924;-70
2022/05/09 14:51:18;;;;;;;;;;;26.70;37.20;;;;;;5087573;28;19961;-70
2022/05/09 14:53:50;;;;;;;;;;;26.70;37.20;;;;;;5086760;28;19928;-71
2022/05/09 14:59:18;;;;;;;;;;;26.70;37.40;;;;;;5083639;28;20364;-72
2022/05/09 15:05:20;;;;;;;;;;;26.60;37.70;;;;;;5083978;28;20322;-71
2022/05/09 15:07:47;;;;;;;;;;;26.60;37.90;;;;;;5080131;28;19966;-71
2022/05/09 15:10:14;;;;;;;;;;;26.70;38.20;;;;;;5075122;28;19933;-67
2022/05/09 15:12:42;;;;;;;;;;;26.70;38.20;;;;;;5092243;28;20009;-70
2022/05/09 15:15:10;;;;;;;;;;;26.70;38.30;;;;;;5093377;28;19938;-71
2022/05/09 15:17:36;;;;;;;;;;;26.70;38.20;;;;;;5081538;28;19921;-72
2022/05/09 15:23:35;;;;;;;;;;;26.80;38.30;;;;;;5088471;28;19942;-72
2022/05/09 15:26:02;;;;;;;;;;;26.90;38.20;;;;;;5085209;28;19932;-70
2022/05/09 15:28:31;;;;;;;;;;;26.90;38.20;;;;;;5083133;28;19928;-71
2022/05/09 15:30:58;;;;;;;;;;;26.90;38.20;;;;;;5093037;28;19932;-71
2022/05/09 15:36:53;;;;;;;;;;;27.00;38.20;;;;;;5086142;28;19921;-71
2022/05/09 15:39:20;;;;;;;;;;;27.00;38.20;;;;;;5092507;28;19977;-66
2022/05/09 15:41:47;;;;;;;;;;;27.00;38.10;;;;;;5076747;28;19932;-71
2022/05/09 15:44:16;;;;;;;;;;;27.10;38.10;;;;;;5082997;28;19920;-71
2022/05/09 15:49:55;;;;;;;;;;;27.20;38.20;;;;;;5079429;28;19920;-67
2022/05/09 15:52:23;;;;;;;;;;;27.30;38.20;;;;;;5082732;28;19963;-71
2022/05/09 15:54:52;;;;;;;;;;;27.30;38.30;;;;;;5062749;28;19936;-71
2022/05/09 15:57:20;;;;;;;;;;;27.40;38.50;;;;;;5092120;28;19928;-71
2022/05/09 16:03:23;;;;;;;;;;;27.80;39.00;;;;;;5089822;28;19938;-72
2022/05/09 16:11:26;;;;;;;;;;;28.10;39.30;;;;;;5095190;28;19924;-74
2022/05/09 16:17:15;;;;;;;;;;;28.10;45.10;;;;;;5094728;28;20406;-82
2022/05/09 16:19:44;;;;;;;;;;;28.10;45.00;;;;;;5094144;28;19928;-76
2022/05/09 16:22:21;;;;;;;;;;;28.00;43.50;;;;;;5093804;28;19920;-79
2022/05/09 16:24:53;;;;;;;;;;;28.00;42.80;;;;;;5090251;28;19968;-80
2022/05/09 16:30:42;;;;;;;;;;;27.80;41.50;;;;;;5110041;28;19977;-82
2022/05/09 16:33:10;;;;;;;;;;;27.70;41.00;;;;;;5095602;28;20056;-76
2022/05/09 16:35:37;;;;;;;;;;;27.60;41.00;;;;;;5099066;28;19927;-76
2022/05/09 16:38:04;;;;;;;;;;;27.60;41.70;;;;;;5113387;28;19923;-76
2022/05/09 16:43:51;;;;;;;;;;;27.50;43.60;;;;;;5113346;28;19972;-76
2022/05/09 16:46:21;;;;;;;;;;;27.50;44.10;;;;;;5113967;28;19992;-77
2022/05/09 16:48:49;;;;;;;;;;;27.40;43.00;;;;;;5112877;28;20450;-76
2022/05/09 16:51:16;;;;;;;;;;;27.40;42.40;;;;;;5113855;28;20634;-76
2022/05/09 16:57:05;;;;;;;;;;;27.30;41.70;;;;;;5112710;28;19919;-75
2022/05/09 16:59:32;;;;;;;;;;;27.30;41.50;;;;;;5113887;28;19931;-77
2022/05/09 17:01:59;;;;;;;;;;;27.30;41.40;;;;;;5113433;28;19923;-76
2022/05/09 17:04:27;;;;;;;;;;;27.30;41.20;;;;;;5113201;28;19972;-76
2022/05/09 17:13:59;;;;;;;;;;;27.50;41.20;;;;;;5118386;28;20387;-77
2022/05/09 17:16:26;;;;;;;;;;;27.50;41.30;;;;;;5101069;28;19928;-77
2022/05/09 17:18:53;;;;;;;;;;;27.50;41.20;;;;;;5118459;28;20013;-77
2022/05/09 17:21:20;;;;;;;;;;;27.50;41.20;;;;;;5118796;28;19924;-77
2022/05/09 17:23:47;;;;;;;;;;;27.50;41.50;;;;;;5100008;28;19928;-77
2022/05/09 17:26:20;;;;;;;;;;;27.50;41.40;;;;;;5118349;28;19924;-77
2022/05/09 17:28:48;;;;;;;;;;;27.40;41.40;;;;;;5118375;28;20318;-77
2022/05/09 17:31:15;;;;;;;;;;;27.30;41.30;;;;;;5118099;28;19924;-77
2022/05/09 17:33:42;;;;;;;;;;;27.30;41.40;;;;;;5118043;28;19924;-77
2022/05/09 17:38:56;;;;;;;;;;;27.20;41.50;;;;;;5118000;28;20372;-77
2022/05/09 17:41:24;;;;;;;;;;;27.10;41.50;;;;;;5118457;28;19924;-77
2022/05/09 17:43:51;;;;;;;;;;;27.10;41.50;;;;;;5118349;28;19946;-77
2022/05/09 17:46:20;;;;;;;;;;;27.10;41.60;;;;;;5118101;28;19924;-77
2022/05/09 17:48:47;;;;;;;;;;;27.00;41.50;;;;;;5118095;28;19924;-77
2022/05/09 17:51:14;;;;;;;;;;;27.00;41.60;;;;;;5117926;28;19969;-77
2022/05/09 17:53:42;;;;;;;;;;;27.00;41.60;;;;;;5099991;28;20341;-77
2022/05/09 17:56:09;;;;;;;;;;;26.90;41.50;;;;;;5118062;28;19976;-77
2022/05/09 17:58:36;;;;;;;;;;;26.90;41.50;;;;;;5117804;28;20405;-77
2022/05/09 18:01:07;;;;;;;;;;;26.90;41.60;;;;;;5118283;28;19924;-79
2022/05/09 18:03:35;;;;;;;;;;;26.80;41.60;;;;;;5117805;28;19977;-77
2022/05/09 18:06:02;;;;;;;;;;;26.80;41.60;;;;;;5117839;28;19923;-77
2022/05/09 18:08:29;;;;;;;;;;;26.80;41.60;;;;;;5117927;28;20321;-77
2022/05/09 18:10:56;;;;;;;;;;;26.70;41.60;;;;;;5117842;28;19924;-78
2022/05/09 18:13:24;;;;;;;;;;;26.70;41.60;;;;;;5099538;28;19954;-77
2022/05/09 18:15:54;;;;;;;;;;;26.60;41.50;;;;;;5118031;28;19928;-77
2022/05/09 18:18:30;;;;;;;;;;;26.60;41.50;;;;;;5099668;28;19927;-78
2022/05/09 18:21:00;;;;;;;;;;;26.60;41.50;;;;;;5117496;28;19928;-77
2022/05/09 18:23:28;;;;;;;;;;;26.60;41.50;;;;;;5117784;28;19977;-77
2022/05/09 18:25:55;;;;;;;;;;;26.60;41.50;;;;;;5117628;28;20375;-77
2022/05/09 18:28:22;;;;;;;;;;;26.50;41.40;;;;;;5099788;28;19969;-77
2022/05/09 18:30:49;;;;;;;;;;;26.50;41.40;;;;;;5117456;28;19924;-77
2022/05/09 18:33:17;;;;;;;;;;;26.50;41.40;;;;;;5117911;28;19924;-78
2022/05/09 18:35:50;;;;;;;;;;;26.50;41.40;;;;;;5117472;28;19945;-78
2022/05/09 18:38:22;;;;;;;;;;;26.50;41.40;;;;;;5117766;28;19977;-78
2022/05/09 18:40:55;;;;;;;;;;;26.50;41.50;;;;;;5117429;28;19924;-78
2022/05/09 18:43:23;;;;;;;;;;;26.40;41.40;;;;;;5117374;28;19977;-77
2022/05/09 18:45:51;;;;;;;;;;;26.40;41.40;;;;;;5118292;28;19990;-78
2022/05/09 18:48:18;;;;;;;;;;;26.40;41.50;;;;;;5121236;28;19931;-77
2022/05/09 18:53:32;;;;;;;;;;;26.40;41.50;;;;;;5121051;28;20428;-78
2022/05/09 18:56:00;;;;;;;;;;;26.30;41.40;;;;;;5121173;28;20367;-77
2022/05/09 18:58:27;;;;;;;;;;;26.40;41.50;;;;;;5121023;28;19927;-78
2022/05/09 19:00:54;;;;;;;;;;;26.30;41.50;;;;;;5121226;28;19928;-78
2022/05/09 19:03:22;;;;;;;;;;;26.30;41.50;;;;;;5121095;28;20010;-77
2022/05/09 19:05:51;;;;;;;;;;;26.30;41.50;;;;;;5121479;28;19927;-76
2022/05/09 19:08:31;;;;;;;;;;;26.30;41.50;;;;;;5121166;28;19923;-77
2022/05/09 19:11:05;;;;;;;;;;;26.20;41.40;;;;;;5103057;28;19954;-77
2022/05/09 19:13:34;;;;;;;;;;;26.20;41.40;;;;;;5120537;28;19924;-78
2022/05/09 19:16:01;;;;;;;;;;;26.20;41.40;;;;;;5121388;28;19923;-78
2022/05/09 19:18:28;;;;;;;;;;;26.20;41.50;;;;;;5120720;28;19977;-78
2022/05/09 19:20:55;;;;;;;;;;;26.30;41.50;;;;;;5120925;28;20283;-77
2022/05/09 19:23:22;;;;;;;;;;;26.20;41.50;;;;;;5120659;28;19924;-77
2022/05/09 19:25:51;;;;;;;;;;;26.10;41.40;;;;;;5120740;28;19924;-77